Time;durP1;ratioP1;P1;durP2;ratioP2;P2;SDS_P1;SDS_P2;PMS_P1;PMS_P2;Temp;Humidity;BMP_temperature;BMP_pressure;BME280_temperature;BME280_humidity;BME280_pressure;Samples;Min_cycle;Max_cycle;Signal;HPM_P1;HPM_P2
2021/03/13 00:00:22;;;;;;;34.92;21.60;;;;;;;1.59;79.91;98930.37;1725065;83;21178;-73
2021/03/13 00:02:50;;;;;;;35.92;20.65;;;;;;;1.59;79.94;98926.45;1725006;83;21189;-74
2021/03/13 00:05:27;;;;;;;44.55;24.10;;;;;;;1.74;79.56;98917.05;1724970;83;21196;-74
2021/03/13 00:07:54;;;;;;;39.58;24.30;;;;;;;1.72;79.64;98918.44;1725068;83;21145;-73
2021/03/13 00:10:21;;;;;;;42.93;22.67;;;;;;;1.63;79.90;98914.97;1725051;83;21194;-74
2021/03/13 00:12:49;;;;;;;40.67;23.35;;;;;;;1.65;79.92;98924.88;1724830;83;21154;-74
2021/03/13 00:15:17;;;;;;;42.17;23.52;;;;;;;1.80;79.49;98925.45;1724987;83;21181;-74
2021/03/13 00:17:45;;;;;;;39.38;23.18;;;;;;;1.78;79.48;98924.66;1724864;83;21182;-74
2021/03/13 00:20:16;;;;;;;44.03;22.48;;;;;;;1.71;79.76;98925.03;1725129;83;21166;-73
2021/03/13 00:22:44;;;;;;;36.63;22.13;;;;;;;1.66;79.93;98930.92;1724825;83;21166;-73
2021/03/13 00:25:12;;;;;;;40.30;23.98;;;;;;;1.80;79.65;98925.45;1724953;83;21344;-73
2021/03/13 00:27:48;;;;;;;43.35;24.72;;;;;;;1.86;79.47;98918.25;1725088;83;21174;-73
2021/03/13 00:30:26;;;;;;;49.15;26.12;;;;;;;1.78;79.68;98915.54;1725221;83;21607;-73
2021/03/13 00:32:55;;;;;;;36.23;21.97;;;;;;;1.71;79.84;98920.65;1724931;83;21194;-73
2021/03/13 00:35:26;;;;;;;39.50;22.98;;;;;;;1.77;79.71;98926.87;1724982;83;21182;-73
2021/03/13 00:37:55;;;;;;;41.73;25.10;;;;;;;1.86;79.45;98922.16;1722199;83;21202;-74
2021/03/13 00:40:24;;;;;;;41.02;24.15;;;;;;;1.77;79.64;98917.75;1704024;84;21309;-74
2021/03/13 00:42:51;;;;;;;38.80;24.87;;;;;;;1.68;79.89;98923.88;1703891;84;21195;-73
2021/03/13 00:45:21;;;;;;;36.80;23.90;;;;;;;1.74;79.70;98927.48;1703896;84;21295;-73
2021/03/13 00:47:49;;;;;;;41.83;24.07;;;;;;;1.79;79.60;98919.84;1703875;84;21286;-73
2021/03/13 00:50:20;;;;;;;35.68;22.50;;;;;;;1.71;79.84;98922.42;1703764;84;21317;-72
2021/03/13 00:52:47;;;;;;;34.92;22.42;;;;;;;1.63;80.07;98933.21;1704084;84;21139;-72
2021/03/13 00:55:15;;;;;;;37.38;21.33;;;;;;;1.76;79.83;98919.97;1704070;84;21219;-73
2021/03/13 00:57:44;;;;;;;34.85;22.52;;;;;;;1.76;79.82;98926.48;1683729;84;21151;-72
2021/03/13 01:00:17;;;;;;;33.95;20.40;;;;;;;1.67;80.13;98933.45;1703891;83;21186;-73
2021/03/13 01:02:44;;;;;;;36.55;21.50;;;;;;;1.67;80.27;98936.05;1704168;83;21285;-72
2021/03/13 01:05:13;;;;;;;40.03;21.97;;;;;;;1.83;79.92;98930.11;1704210;83;21163;-74
2021/03/13 01:07:42;;;;;;;41.85;23.83;;;;;;;1.82;80.00;98922.77;1704135;84;21123;-73
2021/03/13 01:10:30;;;;;;;40.88;22.50;;;;;;;1.75;80.26;98928.73;1704014;84;21236;-73
2021/03/13 01:12:58;;;;;;;40.55;22.35;;;;;;;1.74;80.35;98929.64;1704056;84;21191;-73
2021/03/13 01:15:25;;;;;;;40.58;24.45;;;;;;;1.91;79.92;98931.91;1704087;84;21944;-73
2021/03/13 01:17:53;;;;;;;44.33;24.82;;;;;;;1.89;79.94;98938.95;1703876;84;21194;-73
2021/03/13 01:20:22;;;;;;;45.92;25.15;;;;;;;1.80;80.21;98947.61;1703959;83;21329;-72
2021/03/13 01:22:50;;;;;;;44.63;24.45;;;;;;;1.78;80.33;98944.22;1704144;84;21348;-72
2021/03/13 01:25:17;;;;;;;52.80;27.87;;;;;;;1.95;79.94;98959.52;1704034;84;21186;-73
2021/03/13 01:29:32;;;;;;;47.93;26.02;;;;;;;1.95;80.05;98962.13;1780275;79;23463;-73
2021/03/13 01:32:04;;;;;;;46.08;24.72;;;;;;;1.84;80.25;98964.40;1753303;82;21195;-73
2021/03/13 01:34:33;;;;;;;48.60;24.80;;;;;;;1.89;80.16;98991.09;1723671;82;21135;-73
2021/03/13 01:37:02;;;;;;;45.67;25.12;;;;;;;2.00;79.82;98982.31;1752443;82;21660;-73
2021/03/13 01:39:31;;;;;;;42.45;23.83;;;;;;;1.93;79.95;98976.55;1753016;81;21591;-73
2021/03/13 01:41:59;;;;;;;38.13;22.48;;;;;;;1.86;80.16;98979.05;1753247;82;21167;-72
2021/03/13 01:44:26;;;;;;;38.50;22.05;;;;;;;1.89;80.11;98981.98;1753413;82;21143;-73
2021/03/13 01:46:54;;;;;;;38.78;22.77;;;;;;;2.03;79.78;98992.59;1753938;82;21615;-73
2021/03/13 01:49:30;;;;;;;42.33;23.32;;;;;;;1.98;79.83;98988.05;1723854;82;21187;-73
2021/03/13 01:51:58;;;;;;;36.55;22.22;;;;;;;1.90;80.12;98996.70;1753186;82;21706;-72
2021/03/13 01:54:25;;;;;;;35.70;20.68;;;;;;;1.94;80.10;98995.64;1753196;82;21179;-72
2021/03/13 01:56:53;;;;;;;38.73;23.52;;;;;;;2.06;79.76;98993.77;1753067;82;21143;-72
2021/03/13 01:59:21;;;;;;;42.10;24.37;;;;;;;2.01;79.87;98993.14;1753015;81;21176;-73
2021/03/13 02:01:50;;;;;;;37.50;23.18;;;;;;;1.93;80.09;98997.86;1753170;82;21174;-72
2021/03/13 02:04:19;;;;;;;34.98;21.82;;;;;;;1.94;80.09;98996.95;1752905;81;21139;-72
2021/03/13 02:07:09;;;;;;;35.58;22.48;;;;;;;2.06;79.77;98997.68;1752830;82;21154;-73
2021/03/13 02:10:16;;;;;;;37.98;22.27;;;;;;;2.01;79.92;99006.18;1751510;82;21679;-72
2021/03/13 02:12:47;;;;;;;;;;;;;;;1.90;80.23;99018.41;1725649;83;21187;-72
2021/03/13 02:15:35;;;;;;;38.05;21.00;;;;;;;2.00;80.10;99017.53;1723234;83;20251;-72
2021/03/13 02:18:12;;;;;;;39.40;22.58;;;;;;;2.00;80.10;99018.83;1723258;83;21308;-71
2021/03/13 02:21:02;;;;;;;39.88;22.22;;;;;;;1.90;80.39;99018.41;1723013;83;21154;-72
2021/03/13 02:23:38;;;;;;;34.48;20.97;;;;;;;1.86;80.57;99017.33;1723071;83;21778;-72
2021/03/13 02:26:51;;;;;;;36.05;20.17;;;;;;;2.02;80.20;99022.22;1721845;83;21650;-72
2021/03/13 02:29:29;;;;;;;32.03;21.02;;;;;;;2.03;80.16;99039.53;1721503;83;21753;-72
2021/03/13 02:31:58;;;;;;;36.45;20.35;;;;;;;1.94;80.46;99035.63;1697201;83;21178;-71
2021/03/13 02:34:30;;;;;;;31.30;20.17;;;;;;;1.90;80.65;99042.34;1697252;83;21190;-73
2021/03/13 02:37:02;;;;;;;33.38;20.52;;;;;;;2.07;80.27;99036.33;1723876;83;21172;-73
2021/03/13 02:39:30;;;;;;;31.30;19.57;;;;;;;2.10;80.19;99039.65;1723706;83;21294;-73
2021/03/13 02:42:04;;;;;;;35.80;20.97;;;;;;;2.04;80.42;99031.27;1723462;83;21206;-73
2021/03/13 02:44:34;;;;;;;37.42;21.62;;;;;;;1.98;80.68;99033.69;1724205;83;21281;-73
2021/03/13 02:47:05;;;;;;;57.93;27.50;;;;;;;2.03;80.63;99033.02;1725055;82;21186;-74
2021/03/13 02:49:37;;;;;;;46.75;24.45;;;;;;;2.19;80.20;99022.72;1724479;83;21195;-75
2021/03/13 02:52:10;;;;;;;37.42;21.80;;;;;;;2.18;80.32;99038.45;1722333;83;21748;-74
2021/03/13 02:54:43;;;;;;;36.70;20.35;;;;;;;2.09;80.53;99032.73;1723267;83;21158;-74
2021/03/13 02:57:13;;;;;;;29.32;18.07;;;;;;;2.04;80.75;99021.67;1723505;83;21131;-75
2021/03/13 02:59:41;;;;;;;31.07;19.40;;;;;;;2.15;80.50;99025.09;1723467;83;21317;-75
2021/03/13 03:02:10;;;;;;;33.13;19.75;;;;;;;2.26;80.26;99020.66;1723628;83;21313;-74
2021/03/13 03:04:38;;;;;;;31.37;18.32;;;;;;;2.20;80.45;99028.77;1723624;83;21146;-75
2021/03/13 03:07:06;;;;;;;33.02;19.25;;;;;;;2.11;80.66;99032.22;1723353;83;21154;-74
2021/03/13 03:09:34;;;;;;;30.50;18.02;;;;;;;2.08;80.82;99027.13;1723296;82;21698;-72
2021/03/13 03:12:03;;;;;;;30.88;19.10;;;;;;;2.24;80.39;99023.82;1723309;83;21320;-72
2021/03/13 03:14:31;;;;;;;32.30;19.32;;;;;;;2.27;80.22;99019.27;1673830;83;21142;-73
2021/03/13 03:17:01;;;;;;;37.10;19.98;;;;;;;2.23;80.40;99022.12;1723529;83;21281;-72
2021/03/13 03:19:32;;;;;;;34.20;20.25;;;;;;;2.17;80.56;99032.84;1723123;83;21138;-73
2021/03/13 03:22:01;;;;;;;34.18;19.12;;;;;;;2.19;80.55;99028.41;1722517;83;21199;-73
2021/03/13 03:24:29;;;;;;;32.85;20.27;;;;;;;2.35;80.16;99029.34;1723227;83;21147;-73
2021/03/13 03:26:59;;;;;;;38.02;22.42;;;;;;;2.33;80.14;99033.80;1723196;83;21119;-72
2021/03/13 03:29:28;;;;;;;45.67;24.80;;;;;;;2.26;80.29;99024.57;1701603;83;21324;-72
2021/03/13 03:31:55;;;;;;;41.37;25.00;;;;;;;2.20;80.47;99031.38;1730697;83;21166;-72
2021/03/13 03:34:23;;;;;;;45.38;26.02;;;;;;;2.33;80.21;99044.69;1730780;83;21163;-73
2021/03/13 03:36:52;;;;;;;43.23;25.62;;;;;;;2.37;80.07;99034.04;1730913;83;21166;-72
2021/03/13 03:39:20;;;;;;;41.80;23.65;;;;;;;2.29;80.28;99055.75;1730863;83;21158;-73
2021/03/13 03:41:52;;;;;;;37.67;21.80;;;;;;;2.19;80.51;99050.11;1730678;83;21178;-73
2021/03/13 03:44:24;;;;;;;34.83;21.30;;;;;;;2.27;80.35;99064.09;1730947;83;21191;-74
2021/03/13 03:46:57;;;;;;;34.13;20.17;;;;;;;2.32;80.21;99060.81;1730297;83;21613;-74
2021/03/13 03:49:25;;;;;;;34.90;20.60;;;;;;;2.21;80.47;99067.86;1730673;83;21183;-73
2021/03/13 03:51:54;;;;;;;31.40;18.77;;;;;;;2.12;80.72;99063.91;1729108;83;21158;-73
2021/03/13 03:54:23;;;;;;;35.55;19.12;;;;;;;2.22;80.51;99066.08;1730717;83;21182;-73
2021/03/13 03:56:50;;;;;;;32.58;18.70;;;;;;;2.26;80.42;99059.36;1730712;83;21154;-73
2021/03/13 03:59:19;;;;;;;31.30;18.48;;;;;;;2.17;80.65;99060.23;1730837;83;21199;-72
2021/03/13 04:01:52;;;;;;;32.48;18.35;;;;;;;2.08;81.00;99060.20;1730864;83;21277;-73
2021/03/13 04:04:23;;;;;;;29.45;18.02;;;;;;;2.16;80.88;99058.53;1730826;83;21293;-73
2021/03/13 04:06:51;;;;;;;30.92;18.75;;;;;;;2.26;80.65;99075.45;1730365;83;21163;-73
2021/03/13 04:09:23;;;;;;;36.53;19.30;;;;;;;2.21;80.89;99072.21;1730892;83;21190;-73
2021/03/13 04:11:51;;;;;;;28.27;16.67;;;;;;;2.13;81.13;99080.39;1730649;83;21135;-74
2021/03/13 04:14:18;;;;;;;27.58;17.05;;;;;;;2.20;81.06;99077.03;1730980;83;21550;-73
2021/03/13 04:16:46;;;;;;;26.95;16.37;;;;;;;2.27;80.82;99077.14;1730884;83;21190;-72
2021/03/13 04:19:13;;;;;;;27.73;16.80;;;;;;;2.19;81.03;99081.42;1730947;83;21158;-72
2021/03/13 04:21:42;;;;;;;27.62;16.50;;;;;;;2.12;81.27;99076.95;1730872;83;21138;-73
2021/03/13 04:24:12;;;;;;;28.30;16.60;;;;;;;2.23;81.06;99073.00;1730768;83;21331;-73
2021/03/13 04:26:42;;;;;;;29.60;16.45;;;;;;;2.25;80.93;99079.84;1731014;83;21308;-72
2021/03/13 04:29:09;;;;;;;24.30;14.90;;;;;;;2.16;81.21;99077.63;1727447;83;21729;-72
2021/03/13 04:31:37;;;;;;;25.12;14.80;;;;;;;2.11;81.42;99092.66;1723293;83;21119;-73
2021/03/13 04:34:04;;;;;;;25.45;15.95;;;;;;;2.22;81.08;99085.65;1723214;83;21730;-73
2021/03/13 04:36:33;;;;;;;26.75;15.45;;;;;;;2.19;81.18;99087.11;1723358;83;21167;-73
2021/03/13 04:39:03;;;;;;;25.08;15.00;;;;;;;2.09;81.47;99095.81;1723359;83;21159;-76
2021/03/13 04:41:31;;;;;;;27.40;16.30;;;;;;;2.11;81.62;99084.83;1723246;83;21131;-74
2021/03/13 04:43:58;;;;;;;27.98;16.25;;;;;;;2.26;81.29;99088.49;1723255;83;21186;-72
2021/03/13 04:46:25;;;;;;;26.40;15.20;;;;;;;2.24;81.32;99087.73;1696769;83;21182;-73
2021/03/13 04:48:53;;;;;;;29.20;16.02;;;;;;;2.15;81.60;99086.84;1723138;83;21435;-73
2021/03/13 04:51:20;;;;;;;21.77;13.75;;;;;;;2.16;81.67;99095.89;1723328;83;21607;-72
2021/03/13 04:53:48;;;;;;;28.95;16.02;;;;;;;2.26;81.38;99094.58;1723437;83;21322;-72
2021/03/13 04:56:15;;;;;;;25.55;15.43;;;;;;;2.21;81.52;99109.59;1723196;83;21149;-72
2021/03/13 04:58:42;;;;;;;26.17;16.00;;;;;;;2.15;81.83;99114.23;1723153;83;21127;-72
2021/03/13 05:01:09;;;;;;;25.12;14.95;;;;;;;2.20;81.89;99105.73;1723217;83;21207;-73
2021/03/13 05:03:39;;;;;;;28.90;17.45;;;;;;;2.35;81.59;99116.76;1674621;83;21588;-72
2021/03/13 05:06:07;;;;;;;28.15;16.73;;;;;;;2.34;81.77;99108.56;1723283;83;21253;-72
2021/03/13 05:08:34;;;;;;;24.80;14.83;;;;;;;2.28;81.92;99107.55;1723211;83;21191;-72
2021/03/13 05:11:01;;;;;;;21.75;13.03;;;;;;;2.33;81.81;99121.22;1723034;82;21220;-73
2021/03/13 05:13:29;;;;;;;26.57;15.58;;;;;;;2.42;81.55;99123.39;1723237;83;21191;-73
2021/03/13 05:15:56;;;;;;;28.27;15.35;;;;;;;2.34;81.74;99125.53;1723092;83;21171;-73
2021/03/13 05:18:24;;;;;;;25.25;14.80;;;;;;;2.31;81.89;99127.43;1723148;83;21159;-73
2021/03/13 05:20:52;;;;;;;28.45;17.75;;;;;;;2.41;81.76;99126.09;1723290;83;21182;-73
2021/03/13 05:23:19;;;;;;;29.23;17.70;;;;;;;2.54;81.43;99137.63;1723366;83;21181;-73
2021/03/13 05:25:46;;;;;;;27.93;15.83;;;;;;;2.49;81.54;99130.94;1723129;83;21174;-73
2021/03/13 05:28:13;;;;;;;29.20;16.62;;;;;;;2.43;81.74;99131.62;1723408;83;21203;-73
2021/03/13 05:30:40;;;;;;;29.75;16.95;;;;;;;2.49;81.63;99133.08;1710172;83;21637;-73
2021/03/13 05:33:09;;;;;;;32.70;17.75;;;;;;;2.63;81.25;99138.95;1709638;84;21164;-73
2021/03/13 05:35:39;;;;;;;32.13;17.17;;;;;;;2.57;81.41;99144.47;1709872;84;21159;-73
2021/03/13 05:38:08;;;;;;;31.60;16.23;;;;;;;2.52;81.65;99149.05;1709555;84;21326;-73
2021/03/13 05:40:35;;;;;;;29.63;16.97;;;;;;;2.54;81.55;99140.23;1709644;83;21171;-73
2021/03/13 05:43:02;;;;;;;30.10;16.90;;;;;;;2.65;81.25;99144.97;1709786;83;21592;-73
2021/03/13 05:45:30;;;;;;;29.80;15.90;;;;;;;2.61;81.41;99156.48;1709667;84;21179;-73
2021/03/13 05:47:57;;;;;;;28.50;16.77;;;;;;;2.59;81.65;99158.30;1709686;84;21640;-74
2021/03/13 05:50:25;;;;;;;32.65;18.23;;;;;;;2.69;81.50;99159.56;1709648;84;21187;-74
2021/03/13 05:52:55;;;;;;;32.60;19.48;;;;;;;2.83;81.22;99158.07;1709801;84;21151;-74
2021/03/13 05:55:22;;;;;;;35.95;19.50;;;;;;;2.83;81.34;99163.30;1709632;84;21170;-73
2021/03/13 05:57:51;;;;;;;38.48;20.55;;;;;;;2.81;81.42;99165.13;1710030;83;21345;-73
2021/03/13 06:00:21;;;;;;;39.50;20.85;;;;;;;2.89;81.26;99161.67;1709675;84;21310;-74
2021/03/13 06:02:49;;;;;;;39.53;20.95;;;;;;;3.04;80.86;99171.84;1709812;84;21317;-73
2021/03/13 06:05:17;;;;;;;44.33;22.62;;;;;;;3.02;80.90;99175.84;1709744;84;21153;-73
2021/03/13 06:07:44;;;;;;;32.40;17.87;;;;;;;2.96;80.99;99182.67;1709891;84;21583;-73
2021/03/13 06:10:13;;;;;;;30.45;17.30;;;;;;;3.01;80.87;99194.22;1709805;82;21232;-74
2021/03/13 06:12:40;;;;;;;28.50;17.77;;;;;;;3.14;80.45;99185.31;1709694;83;21588;-74
2021/03/13 06:15:09;;;;;;;34.13;19.48;;;;;;;3.11;80.58;99201.99;1710020;84;21163;-73
2021/03/13 06:17:57;;;;;;;28.02;16.17;;;;;;;3.09;80.67;99207.27;1709822;84;21183;-74
2021/03/13 06:20:36;;;;;;;28.95;15.83;;;;;;;3.19;80.62;99206.38;1710016;84;21135;-73
2021/03/13 06:23:12;;;;;;;31.45;17.17;;;;;;;3.40;80.10;99203.17;1710296;84;21611;-73
2021/03/13 06:25:39;;;;;;;29.87;17.37;;;;;;;3.40;80.08;99212.33;1696951;84;21329;-72
2021/03/13 06:28:14;;;;;;;29.00;16.40;;;;;;;3.42;80.25;99214.38;1686368;84;21174;-73
2021/03/13 06:30:51;;;;;;;27.73;15.78;;;;;;;3.52;80.08;99216.56;1712468;83;21316;-73
2021/03/13 06:33:33;;;;;;;32.17;17.23;;;;;;;3.76;79.70;99216.63;1719507;83;21593;-72
2021/03/13 06:36:04;;;;;;;29.52;17.02;;;;;;;3.88;79.72;99222.16;1716338;83;21163;-74
2021/03/13 06:38:35;;;;;;;25.15;15.90;;;;;;;3.97;79.69;99212.52;1717340;83;21158;-73
2021/03/13 06:41:22;;;;;;;27.62;16.50;;;;;;;4.06;79.46;99212.04;1715665;83;21637;-74
2021/03/13 06:43:53;;;;;;;28.87;16.65;;;;;;;4.31;78.88;99213.38;1715751;83;21106;-73
2021/03/13 06:46:21;;;;;;;23.35;13.90;;;;;;;4.51;78.65;99216.22;1712763;83;21175;-75
2021/03/13 06:48:54;;;;;;;30.62;15.98;;;;;;;4.60;78.25;99205.72;1718621;83;21159;-74
2021/03/13 06:51:32;;;;;;;26.00;14.98;;;;;;;4.67;78.06;99207.09;1713740;83;21131;-73
2021/03/13 06:54:10;;;;;;;17.85;12.07;;;;;;;4.79;77.84;99206.03;1692130;83;21091;-73
2021/03/13 06:56:41;;;;;;;92.00;51.30;;;;;;;5.07;76.86;99199.62;1701759;83;21151;-74
2021/03/13 06:59:32;;;;;;;27.70;15.98;;;;;;;5.20;76.61;99209.42;1705149;83;21563;-73
2021/03/13 07:02:07;;;;;;;24.87;15.05;;;;;;;5.30;76.32;99209.27;1707167;83;21163;-73
2021/03/13 07:04:42;;;;;;;24.43;15.03;;;;;;;5.41;76.08;99207.36;1708924;83;21158;-73
2021/03/13 07:07:27;;;;;;;23.18;14.28;;;;;;;5.52;75.38;99219.84;1710756;83;21167;-73
2021/03/13 07:09:57;;;;;;;27.90;16.50;;;;;;;5.67;74.40;99213.69;1710762;83;21307;-72
2021/03/13 07:12:39;;;;;;;25.62;15.72;;;;;;;5.67;74.33;99205.82;1699037;83;21187;-73
2021/03/13 07:15:20;;;;;;;30.37;17.65;;;;;;;5.68;74.59;99207.52;1704636;83;21964;-73
2021/03/13 07:17:59;;;;;;;29.55;15.18;;;;;;;5.79;74.58;99213.43;1707752;83;21175;-73
2021/03/13 07:20:32;;;;;;;27.42;17.15;;;;;;;6.05;73.89;99209.77;1700469;83;21135;-74
2021/03/13 07:23:02;;;;;;;28.17;16.03;;;;;;;6.27;73.20;99211.93;1708548;83;21555;-73
2021/03/13 07:25:30;;;;;;;28.25;18.17;;;;;;;6.30;72.88;99218.77;1697817;83;21591;-73
2021/03/13 07:28:00;;;;;;;26.07;16.10;;;;;;;6.33;72.88;99216.81;1698383;83;21224;-74
2021/03/13 07:30:29;;;;;;;25.77;16.25;;;;;;;6.33;72.20;99208.93;1702727;81;21178;-75
2021/03/13 07:33:04;;;;;;;35.17;23.77;;;;;;;6.34;72.31;99207.14;1720644;83;21175;-74
2021/03/13 07:35:36;;;;;;;27.73;18.27;;;;;;;6.56;71.77;99215.86;1692688;83;21680;-75
2021/03/13 07:38:05;;;;;;;24.72;16.17;;;;;;;6.61;71.29;99220.36;1700829;83;21175;-75
2021/03/13 07:40:34;;;;;;;24.57;15.65;;;;;;;6.58;70.90;99213.97;1693977;83;21162;-74
2021/03/13 07:43:02;;;;;;;22.70;15.00;;;;;;;6.54;70.72;99213.31;1700502;83;21190;-73
2021/03/13 07:45:31;;;;;;;20.82;13.45;;;;;;;6.51;70.48;99207.39;1696520;83;21199;-73
2021/03/13 07:47:58;;;;;;;22.75;15.08;;;;;;;6.63;70.30;99205.33;1714719;83;21127;-74
2021/03/13 07:50:26;;;;;;;24.07;15.53;;;;;;;6.68;70.24;99213.77;1693155;83;21758;-72
2021/03/13 07:52:55;;;;;;;23.65;15.43;;;;;;;6.66;70.32;99210.41;1699045;83;21166;-73
2021/03/13 07:55:24;;;;;;;25.17;16.32;;;;;;;6.65;70.31;99217.91;1722534;83;21186;-73
2021/03/13 07:57:51;;;;;;;24.63;15.98;;;;;;;6.65;70.31;99208.71;1711592;83;21275;-73
2021/03/13 08:00:33;;;;;;;23.30;15.00;;;;;;;6.75;70.24;99213.38;1712928;83;21111;-73
2021/03/13 08:03:03;;;;;;;28.90;17.73;;;;;;;6.92;69.69;99209.67;1694025;83;21143;-73
2021/03/13 08:05:30;;;;;;;27.65;17.65;;;;;;;6.92;69.75;99213.61;1723711;83;21135;-73
2021/03/13 08:08:03;;;;;;;27.15;17.10;;;;;;;6.89;69.67;99213.34;1652021;83;21314;-73
2021/03/13 08:10:52;;;;;;;25.45;15.90;;;;;;;6.88;69.40;99205.94;1723411;83;21146;-73
2021/03/13 08:13:32;;;;;;;25.92;16.48;;;;;;;6.84;68.82;99203.59;1699206;83;21737;-72
2021/03/13 08:16:18;;;;;;;27.27;16.27;;;;;;;6.93;68.90;99205.66;1723465;83;21135;-73
2021/03/13 08:18:51;;;;;;;26.90;17.62;;;;;;;6.89;68.81;99213.34;1705896;83;21191;-72
2021/03/13 08:21:24;;;;;;;27.58;17.67;;;;;;;6.77;68.92;99214.14;1722162;83;21161;-72
2021/03/13 08:24:01;;;;;;;24.67;16.32;;;;;;;6.69;69.23;99210.20;1716070;83;21289;-72
2021/03/13 08:26:52;;;;;;;25.82;15.68;;;;;;;6.77;69.35;99212.83;1701323;83;21167;-71
2021/03/13 08:29:22;;;;;;;27.17;16.32;;;;;;;6.94;68.75;99207.80;1717140;82;21672;-71
2021/03/13 08:31:49;;;;;;;26.60;17.52;;;;;;;6.92;68.80;99215.80;1666994;84;21156;-70
2021/03/13 08:34:25;;;;;;;26.80;17.15;;;;;;;6.93;68.95;99212.68;1684234;84;21115;-71
2021/03/13 08:36:52;;;;;;;28.85;18.67;;;;;;;6.99;68.79;99206.55;1687175;84;21290;-70
2021/03/13 08:39:21;;;;;;;25.92;17.42;;;;;;;6.97;68.34;99207.59;1699851;84;21615;-70
2021/03/13 08:41:53;;;;;;;29.35;18.27;;;;;;;7.00;68.20;99213.98;1678086;84;21139;-70
2021/03/13 08:44:27;;;;;;;30.80;19.62;;;;;;;7.16;68.06;99212.51;1687529;84;21552;-71
2021/03/13 08:47:09;;;;;;;33.38;20.02;;;;;;;7.19;67.98;99221.53;1693029;84;21103;-70
2021/03/13 08:49:48;;;;;;;61.68;36.58;;;;;;;7.20;67.77;99217.48;1695948;84;21131;-71
2021/03/13 08:52:21;;;;;;;29.98;18.90;;;;;;;7.17;67.64;99214.20;1680595;84;21755;-71
2021/03/13 08:54:50;;;;;;;33.85;19.90;;;;;;;7.11;67.28;99223.80;1680279;85;21597;-72
2021/03/13 08:57:28;;;;;;;29.15;19.07;;;;;;;7.17;67.08;99223.41;1687975;84;21568;-72
2021/03/13 08:59:59;;;;;;;34.85;20.68;;;;;;;7.08;67.15;99227.95;1699950;84;21155;-72
2021/03/13 09:02:34;;;;;;;33.35;20.82;;;;;;;6.96;67.38;99225.16;1708255;84;21691;-72
2021/03/13 09:05:12;;;;;;;31.17;19.17;;;;;;;6.87;67.56;99210.81;1696831;84;21168;-73
2021/03/13 09:07:40;;;;;;;28.98;18.37;;;;;;;6.81;67.53;99220.40;1703385;84;21148;-72
2021/03/13 09:10:09;;;;;;;31.12;19.12;;;;;;;6.88;67.49;99225.66;1696481;84;21191;-72
2021/03/13 09:12:39;;;;;;;32.20;19.92;;;;;;;6.85;67.23;99222.38;1694406;84;21179;-72
2021/03/13 09:15:08;;;;;;;33.50;20.72;;;;;;;6.77;67.20;99219.39;1666468;86;21218;-72
2021/03/13 09:17:35;;;;;;;28.85;18.32;;;;;;;6.66;67.35;99213.48;1689251;84;21317;-72
2021/03/13 09:20:08;;;;;;;30.80;19.90;;;;;;;6.65;67.63;99223.16;1706334;84;21634;-73
2021/03/13 09:22:43;;;;;;;30.80;19.40;;;;;;;6.83;67.38;99215.04;1695200;84;21302;-72
2021/03/13 09:25:21;;;;;;;31.52;20.10;;;;;;;6.52;67.04;99169.69;1699358;84;21187;-72
2021/03/13 09:27:51;;;;;;;35.52;20.20;;;;;;;6.74;67.24;99220.44;1706767;84;21623;-70
2021/03/13 09:30:23;;;;;;;29.85;19.23;;;;;;;6.67;67.41;99227.00;1713533;83;21198;-71
2021/03/13 09:32:52;;;;;;;30.65;19.17;;;;;;;6.66;67.49;99231.42;1714525;83;21175;-71
2021/03/13 09:35:22;;;;;;;32.10;19.62;;;;;;;6.74;67.14;99227.00;1706626;83;22195;-72
2021/03/13 09:37:50;;;;;;;33.05;20.25;;;;;;;6.65;67.23;99229.73;1657901;86;21211;-72
2021/03/13 09:40:24;;;;;;;35.28;20.82;;;;;;;6.50;67.15;99236.78;1722918;83;21341;-71
2021/03/13 09:42:52;;;;;;;37.63;20.55;;;;;;;6.37;67.66;99234.06;1711469;83;21145;-71
2021/03/13 09:45:23;;;;;;;36.88;20.75;;;;;;;6.46;67.65;99230.48;1708802;83;21135;-72
2021/03/13 09:48:03;;;;;;;39.08;22.82;;;;;;;6.49;67.62;99231.14;1705278;83;21155;-72
2021/03/13 09:50:35;;;;;;;35.98;20.00;;;;;;;6.43;67.52;99232.83;1713174;83;21571;-71
2021/03/13 09:53:06;;;;;;;32.08;18.10;;;;;;;6.32;67.64;99231.35;1699866;83;21190;-71
2021/03/13 09:55:33;;;;;;;40.73;23.80;;;;;;;6.20;67.96;99232.92;1721733;83;21143;-71
2021/03/13 09:58:04;;;;;;;30.45;17.95;;;;;;;6.29;67.79;99228.45;1693849;83;21147;-71
2021/03/13 10:00:42;;;;;;;31.30;18.07;;;;;;;6.31;67.81;99228.34;1716635;83;21139;-71
2021/03/13 10:03:13;;;;;;;36.15;19.25;;;;;;;6.26;67.89;99225.98;1720352;83;21138;-72
2021/03/13 10:05:40;;;;;;;30.60;18.90;;;;;;;6.22;67.97;99231.06;1720810;83;21111;-71
2021/03/13 10:10:51;;;;;;;29.65;18.25;;;;;;;6.51;68.05;99220.53;1773653;79;23532;-70
2021/03/13 10:13:20;;;;;;;31.42;19.62;;;;;;;6.52;67.51;99225.71;1730243;82;21151;-70
2021/03/13 10:15:47;;;;;;;32.35;19.37;;;;;;;6.46;67.49;99224.77;1743316;82;21171;-71
2021/03/13 10:18:20;;;;;;;29.67;18.00;;;;;;;6.40;67.57;99229.09;1744400;82;21147;-71
2021/03/13 10:20:53;;;;;;;32.13;19.73;;;;;;;6.43;67.64;99226.74;1747608;81;21120;-71
2021/03/13 10:23:32;;;;;;;34.85;21.05;;;;;;;6.47;67.85;99225.61;1738963;82;21143;-71
2021/03/13 10:26:10;;;;;;;34.70;20.27;;;;;;;6.43;67.90;99220.17;1725604;81;21575;-71
2021/03/13 10:28:40;;;;;;;31.52;19.70;;;;;;;6.39;68.06;99224.31;1728295;82;21635;-71
2021/03/13 10:31:19;;;;;;;34.65;20.23;;;;;;;6.45;68.05;99219.62;1690606;85;21149;-71
2021/03/13 10:33:47;;;;;;;34.33;21.15;;;;;;;6.61;67.61;99225.62;1713706;83;21150;-71
2021/03/13 10:36:18;;;;;;;34.35;19.62;;;;;;;6.55;67.48;99221.57;1717164;83;21162;-71
2021/03/13 10:38:53;;;;;;;38.50;20.92;;;;;;;6.49;67.33;99227.68;1700772;83;22176;-71
2021/03/13 10:41:22;;;;;;;26.80;17.55;;;;;;;6.40;67.84;99226.46;1718093;83;21772;-72
2021/03/13 10:43:52;;;;;;;33.85;20.20;;;;;;;6.52;67.83;99221.77;1700953;83;21138;-72
2021/03/13 10:46:27;;;;;;;34.00;20.23;;;;;;;6.62;67.42;99210.20;1686254;84;21325;-70
2021/03/13 10:48:59;;;;;;;30.97;19.07;;;;;;;6.59;67.32;99213.03;1685859;84;21297;-70
2021/03/13 10:51:32;;;;;;;36.53;20.37;;;;;;;6.54;67.11;99209.84;1701436;84;21606;-70
2021/03/13 10:54:00;;;;;;;29.87;19.37;;;;;;;6.48;67.42;99209.74;1704452;84;21136;-70
2021/03/13 10:56:41;;;;;;;30.82;19.48;;;;;;;6.56;67.18;99204.88;1687158;84;21377;-70
2021/03/13 10:59:09;;;;;;;36.83;20.72;;;;;;;6.56;67.12;99205.36;1697714;84;21308;-71
2021/03/13 11:01:37;;;;;;;33.42;20.32;;;;;;;6.56;67.39;99202.73;1687896;84;21721;-71
2021/03/13 11:04:05;;;;;;;32.13;20.43;;;;;;;6.58;67.23;99207.40;1683898;85;21162;-70
2021/03/13 11:06:33;;;;;;;31.33;21.15;;;;;;;6.63;67.33;99205.81;1702097;84;21353;-71
2021/03/13 11:09:07;;;;;;;31.70;21.00;;;;;;;6.81;66.96;99204.62;1665973;85;21198;-71
2021/03/13 11:11:35;;;;;;;33.23;21.60;;;;;;;6.82;66.69;99193.19;1640780;86;21178;-70
2021/03/13 11:14:06;;;;;;;30.08;20.10;;;;;;;6.84;66.47;99197.02;1649471;86;21170;-71
2021/03/13 11:16:32;;;;;;;30.30;18.30;;;;;;;6.83;66.52;99201.45;1670653;85;21332;-70
2021/03/13 11:19:01;;;;;;;28.73;18.67;;;;;;;6.84;66.34;99198.34;1656988;85;21295;-70
2021/03/13 11:21:29;;;;;;;29.00;18.00;;;;;;;6.98;66.19;99193.06;1634616;85;21186;-70
2021/03/13 11:23:57;;;;;;;32.17;19.95;;;;;;;7.05;65.50;99191.70;1673748;84;21196;-71
2021/03/13 11:26:24;;;;;;;32.55;19.57;;;;;;;7.02;65.90;99191.05;1667144;86;21198;-70
2021/03/13 11:28:52;;;;;;;29.52;18.87;;;;;;;7.01;65.82;99183.64;1675581;84;21170;-71
2021/03/13 11:31:20;;;;;;;29.48;19.12;;;;;;;7.03;65.83;99179.14;1671459;85;21347;-70
2021/03/13 11:33:48;;;;;;;31.75;18.87;;;;;;;7.16;65.79;99183.58;1655818;86;21158;-71
2021/03/13 11:36:16;;;;;;;31.97;20.43;;;;;;;7.32;65.51;99182.12;1666158;86;21216;-70
2021/03/13 11:38:43;;;;;;;30.30;19.48;;;;;;;7.32;65.57;99177.69;1667796;84;21210;-71
2021/03/13 11:41:11;;;;;;;30.10;18.67;;;;;;;7.33;65.37;99177.23;1664616;84;21336;-71
2021/03/13 11:43:42;;;;;;;32.70;20.30;;;;;;;7.33;65.10;99178.06;1666737;84;21163;-70
2021/03/13 11:46:10;;;;;;;29.32;19.42;;;;;;;7.33;65.06;99171.98;1665976;84;21211;-71
2021/03/13 11:48:41;;;;;;;31.65;19.80;;;;;;;7.38;65.17;99169.39;1669568;84;22111;-70